sensor_id;sensor_type;location;lat;lon;timestamp;P1;durP1;ratioP1;P2;durP2;ratioP2
4355;SDS011;64374;51.482;7.408;2023-04-01T00:01:22;2.07;;;0.87;;
4355;SDS011;64374;51.482;7.408;2023-04-01T00:03:51;3.30;;;1.00;;
4355;SDS011;64374;51.482;7.408;2023-04-01T00:06:23;0.80;;;0.70;;
4355;SDS011;64374;51.482;7.408;2023-04-01T00:08:51;3.17;;;0.83;;
4355;SDS011;64374;51.482;7.408;2023-04-01T00:11:20;1.50;;;1.07;;
4355;SDS011;64374;51.482;7.408;2023-04-01T00:13:51;3.80;;;1.20;;
4355;SDS011;64374;51.482;7.408;2023-04-01T00:16:19;3.13;;;1.07;;
4355;SDS011;64374;51.482;7.408;2023-04-01T00:18:49;2.53;;;1.03;;
4355;SDS011;64374;51.482;7.408;2023-04-01T00:21:19;1.57;;;0.80;;
4355;SDS011;64374;51.482;7.408;2023-04-01T00:23:48;3.90;;;0.93;;
4355;SDS011;64374;51.482;7.408;2023-04-01T00:26:17;1.00;;;0.90;;
4355;SDS011;64374;51.482;7.408;2023-04-01T00:28:47;2.70;;;0.83;;
4355;SDS011;64374;51.482;7.408;2023-04-01T00:31:18;4.80;;;1.13;;
4355;SDS011;64374;51.482;7.408;2023-04-01T00:33:47;1.20;;;1.00;;
4355;SDS011;64374;51.482;7.408;2023-04-01T00:36:16;2.53;;;1.20;;
4355;SDS011;64374;51.482;7.408;2023-04-01T00:38:46;2.87;;;1.20;;
4355;SDS011;64374;51.482;7.408;2023-04-01T00:41:15;1.17;;;1.07;;
4355;SDS011;64374;51.482;7.408;2023-04-01T00:43:45;3.67;;;1.33;;
4355;SDS011;64374;51.482;7.408;2023-04-01T00:46:18;1.43;;;0.90;;
4355;SDS011;64374;51.482;7.408;2023-04-01T00:48:47;1.30;;;0.70;;
4355;SDS011;64374;51.482;7.408;2023-04-01T00:51:20;1.27;;;0.90;;
4355;SDS011;64374;51.482;7.408;2023-04-01T00:53:54;1.83;;;1.10;;
4355;SDS011;64374;51.482;7.408;2023-04-01T00:56:48;6.37;;;1.17;;
4355;SDS011;64374;51.482;7.408;2023-04-01T00:59:23;3.77;;;1.00;;
4355;SDS011;64374;51.482;7.408;2023-04-01T01:01:56;1.10;;;0.80;;
4355;SDS011;64374;51.482;7.408;2023-04-01T01:04:25;1.53;;;0.70;;
4355;SDS011;64374;51.482;7.408;2023-04-01T01:07:00;2.10;;;0.90;;
4355;SDS011;64374;51.482;7.408;2023-04-01T01:09:42;1.23;;;0.70;;
4355;SDS011;64374;51.482;7.408;2023-04-01T01:12:18;0.90;;;0.60;;
4355;SDS011;64374;51.482;7.408;2023-04-01T01:14:55;1.10;;;1.00;;
4355;SDS011;64374;51.482;7.408;2023-04-01T01:17:37;2.13;;;1.00;;
4355;SDS011;64374;51.482;7.408;2023-04-01T01:20:17;3.13;;;0.90;;
4355;SDS011;64374;51.482;7.408;2023-04-01T01:23:05;1.00;;;0.90;;
4355;SDS011;64374;51.482;7.408;2023-04-01T01:25:59;1.43;;;1.00;;
4355;SDS011;64374;51.482;7.408;2023-04-01T01:28:44;2.03;;;0.90;;
4355;SDS011;64374;51.482;7.408;2023-04-01T01:31:23;4.03;;;1.10;;
4355;SDS011;64374;51.482;7.408;2023-04-01T01:34:02;1.00;;;0.90;;
4355;SDS011;64374;51.482;7.408;2023-04-01T01:36:44;6.93;;;1.20;;
4355;SDS011;64374;51.482;7.408;2023-04-01T01:39:17;0.73;;;0.73;;
4355;SDS011;64374;51.482;7.408;2023-04-01T01:41:47;0.90;;;0.90;;
4355;SDS011;64374;51.482;7.408;2023-04-01T01:44:17;4.03;;;1.03;;
4355;SDS011;64374;51.482;7.408;2023-04-01T01:46:46;1.10;;;0.93;;
4355;SDS011;64374;51.482;7.408;2023-04-01T01:49:16;1.37;;;0.97;;
4355;SDS011;64374;51.482;7.408;2023-04-01T01:51:48;1.47;;;1.10;;
4355;SDS011;64374;51.482;7.408;2023-04-01T01:54:17;0.83;;;0.83;;
4355;SDS011;64374;51.482;7.408;2023-04-01T01:56:46;0.80;;;0.80;;
4355;SDS011;64374;51.482;7.408;2023-04-01T01:59:18;1.70;;;1.00;;
4355;SDS011;64374;51.482;7.408;2023-04-01T02:01:50;1.20;;;0.93;;
4355;SDS011;64374;51.482;7.408;2023-04-01T02:04:22;1.40;;;1.10;;
4355;SDS011;64374;51.482;7.408;2023-04-01T02:06:53;4.63;;;1.10;;
4355;SDS011;64374;51.482;7.408;2023-04-01T02:09:27;1.93;;;0.80;;
4355;SDS011;64374;51.482;7.408;2023-04-01T02:11:57;0.90;;;0.90;;
4355;SDS011;64374;51.482;7.408;2023-04-01T02:14:33;2.80;;;1.10;;
4355;SDS011;64374;51.482;7.408;2023-04-01T02:17:07;2.27;;;0.90;;
4355;SDS011;64374;51.482;7.408;2023-04-01T02:19:40;0.90;;;0.70;;
4355;SDS011;64374;51.482;7.408;2023-04-01T02:22:18;0.83;;;0.80;;
4355;SDS011;64374;51.482;7.408;2023-04-01T02:24:49;1.00;;;0.90;;
4355;SDS011;64374;51.482;7.408;2023-04-01T02:27:20;1.53;;;0.80;;
4355;SDS011;64374;51.482;7.408;2023-04-01T02:29:49;1.23;;;0.90;;
4355;SDS011;64374;51.482;7.408;2023-04-01T02:32:19;2.50;;;1.00;;
4355;SDS011;64374;51.482;7.408;2023-04-01T02:34:48;1.23;;;0.80;;
4355;SDS011;64374;51.482;7.408;2023-04-01T02:37:19;1.27;;;0.80;;
4355;SDS011;64374;51.482;7.408;2023-04-01T02:39:48;1.20;;;0.80;;
4355;SDS011;64374;51.482;7.408;2023-04-01T02:42:16;1.67;;;1.20;;
4355;SDS011;64374;51.482;7.408;2023-04-01T02:44:45;2.30;;;0.70;;
4355;SDS011;64374;51.482;7.408;2023-04-01T02:47:14;1.37;;;0.90;;
4355;SDS011;64374;51.482;7.408;2023-04-01T02:49:42;0.67;;;0.67;;
4355;SDS011;64374;51.482;7.408;2023-04-01T02:52:10;2.60;;;0.80;;
4355;SDS011;64374;51.482;7.408;2023-04-01T02:54:40;1.00;;;0.87;;
4355;SDS011;64374;51.482;7.408;2023-04-01T02:57:08;1.00;;;0.70;;
4355;SDS011;64374;51.482;7.408;2023-04-01T02:59:37;1.63;;;0.60;;
4355;SDS011;64374;51.482;7.408;2023-04-01T03:02:05;2.17;;;0.80;;
4355;SDS011;64374;51.482;7.408;2023-04-01T03:04:34;1.00;;;0.70;;
4355;SDS011;64374;51.482;7.408;2023-04-01T03:07:02;0.70;;;0.70;;
4355;SDS011;64374;51.482;7.408;2023-04-01T03:09:31;1.00;;;0.60;;
4355;SDS011;64374;51.482;7.408;2023-04-01T03:12:05;0.60;;;0.60;;
4355;SDS011;64374;51.482;7.408;2023-04-01T03:14:45;0.70;;;0.70;;
4355;SDS011;64374;51.482;7.408;2023-04-01T03:17:14;0.70;;;0.70;;
4355;SDS011;64374;51.482;7.408;2023-04-01T03:19:43;1.13;;;0.70;;
4355;SDS011;64374;51.482;7.408;2023-04-01T03:22:12;1.07;;;0.67;;
4355;SDS011;64374;51.482;7.408;2023-04-01T03:24:42;0.90;;;0.70;;
4355;SDS011;64374;51.482;7.408;2023-04-01T03:27:12;2.00;;;0.77;;
4355;SDS011;64374;51.482;7.408;2023-04-01T03:29:41;1.33;;;0.70;;
4355;SDS011;64374;51.482;7.408;2023-04-01T03:32:13;0.63;;;0.63;;
4355;SDS011;64374;51.482;7.408;2023-04-01T03:34:42;0.60;;;0.60;;
4355;SDS011;64374;51.482;7.408;2023-04-01T03:37:10;0.80;;;0.60;;
4355;SDS011;64374;51.482;7.408;2023-04-01T03:39:38;0.70;;;0.60;;
4355;SDS011;64374;51.482;7.408;2023-04-01T03:42:09;0.67;;;0.67;;
4355;SDS011;64374;51.482;7.408;2023-04-01T03:44:38;2.00;;;0.70;;
4355;SDS011;64374;51.482;7.408;2023-04-01T03:47:09;1.53;;;0.60;;
4355;SDS011;64374;51.482;7.408;2023-04-01T03:49:38;1.20;;;0.67;;
4355;SDS011;64374;51.482;7.408;2023-04-01T03:52:08;1.00;;;0.60;;
4355;SDS011;64374;51.482;7.408;2023-04-01T03:54:40;3.23;;;1.03;;
4355;SDS011;64374;51.482;7.408;2023-04-01T03:57:09;0.90;;;0.60;;
4355;SDS011;64374;51.482;7.408;2023-04-01T03:59:39;0.70;;;0.53;;
4355;SDS011;64374;51.482;7.408;2023-04-01T04:02:07;0.70;;;0.50;;
4355;SDS011;64374;51.482;7.408;2023-04-01T04:04:37;0.70;;;0.70;;
4355;SDS011;64374;51.482;7.408;2023-04-01T04:07:06;0.60;;;0.60;;
4355;SDS011;64374;51.482;7.408;2023-04-01T04:09:59;0.70;;;0.70;;
4355;SDS011;64374;51.482;7.408;2023-04-01T04:12:28;0.77;;;0.63;;
4355;SDS011;64374;51.482;7.408;2023-04-01T04:14:59;1.30;;;0.70;;
4355;SDS011;64374;51.482;7.408;2023-04-01T04:17:28;1.43;;;0.80;;
4355;SDS011;64374;51.482;7.408;2023-04-01T04:19:56;1.13;;;0.67;;
4355;SDS011;64374;51.482;7.408;2023-04-01T04:22:24;2.03;;;0.80;;
4355;SDS011;64374;51.482;7.408;2023-04-01T04:24:53;1.73;;;1.00;;
4355;SDS011;64374;51.482;7.408;2023-04-01T04:27:22;1.10;;;0.80;;
4355;SDS011;64374;51.482;7.408;2023-04-01T04:30:07;1.53;;;0.70;;
4355;SDS011;64374;51.482;7.408;2023-04-01T04:32:36;1.80;;;1.07;;
4355;SDS011;64374;51.482;7.408;2023-04-01T04:35:29;1.43;;;0.80;;
4355;SDS011;64374;51.482;7.408;2023-04-01T04:37:58;0.80;;;0.80;;
4355;SDS011;64374;51.482;7.408;2023-04-01T04:40:26;1.00;;;0.90;;
4355;SDS011;64374;51.482;7.408;2023-04-01T04:42:55;0.90;;;0.80;;
4355;SDS011;64374;51.482;7.408;2023-04-01T04:45:26;2.40;;;1.40;;
4355;SDS011;64374;51.482;7.408;2023-04-01T04:47:55;1.27;;;1.17;;
4355;SDS011;64374;51.482;7.408;2023-04-01T04:50:24;3.47;;;1.33;;
4355;SDS011;64374;51.482;7.408;2023-04-01T04:52:53;2.30;;;1.37;;
4355;SDS011;64374;51.482;7.408;2023-04-01T04:55:22;1.57;;;1.47;;
4355;SDS011;64374;51.482;7.408;2023-04-01T04:58:12;1.50;;;1.13;;
4355;SDS011;64374;51.482;7.408;2023-04-01T05:00:44;1.30;;;1.10;;
4355;SDS011;64374;51.482;7.408;2023-04-01T05:03:19;1.67;;;1.10;;
4355;SDS011;64374;51.482;7.408;2023-04-01T05:05:49;1.70;;;1.23;;
4355;SDS011;64374;51.482;7.408;2023-04-01T05:08:19;2.77;;;1.07;;
4355;SDS011;64374;51.482;7.408;2023-04-01T05:10:48;1.00;;;1.00;;
4355;SDS011;64374;51.482;7.408;2023-04-01T05:13:22;3.07;;;0.90;;
4355;SDS011;64374;51.482;7.408;2023-04-01T05:16:20;1.47;;;1.20;;
4355;SDS011;64374;51.482;7.408;2023-04-01T05:18:49;2.33;;;1.10;;
4355;SDS011;64374;51.482;7.408;2023-04-01T05:21:17;1.83;;;1.10;;
4355;SDS011;64374;51.482;7.408;2023-04-01T05:23:46;1.37;;;1.00;;
4355;SDS011;64374;51.482;7.408;2023-04-01T05:26:15;1.20;;;0.80;;
4355;SDS011;64374;51.482;7.408;2023-04-01T05:28:43;1.30;;;1.00;;
4355;SDS011;64374;51.482;7.408;2023-04-01T05:31:12;1.00;;;0.90;;
4355;SDS011;64374;51.482;7.408;2023-04-01T05:33:44;1.67;;;1.10;;
4355;SDS011;64374;51.482;7.408;2023-04-01T05:36:17;0.80;;;0.80;;
4355;SDS011;64374;51.482;7.408;2023-04-01T05:38:45;1.00;;;0.90;;
4355;SDS011;64374;51.482;7.408;2023-04-01T05:41:15;1.90;;;0.80;;
4355;SDS011;64374;51.482;7.408;2023-04-01T05:43:45;1.67;;;0.80;;
4355;SDS011;64374;51.482;7.408;2023-04-01T05:46:32;1.00;;;0.70;;
4355;SDS011;64374;51.482;7.408;2023-04-01T05:49:11;1.00;;;0.80;;
4355;SDS011;64374;51.482;7.408;2023-04-01T05:51:41;0.97;;;0.90;;
4355;SDS011;64374;51.482;7.408;2023-04-01T05:54:11;1.90;;;1.00;;
4355;SDS011;64374;51.482;7.408;2023-04-01T05:56:41;0.90;;;0.90;;
4355;SDS011;64374;51.482;7.408;2023-04-01T05:59:15;3.00;;;1.10;;
4355;SDS011;64374;51.482;7.408;2023-04-01T06:01:43;1.43;;;1.20;;
4355;SDS011;64374;51.482;7.408;2023-04-01T06:04:15;0.80;;;0.80;;
4355;SDS011;64374;51.482;7.408;2023-04-01T06:06:45;0.70;;;0.70;;
4355;SDS011;64374;51.482;7.408;2023-04-01T06:09:15;1.30;;;1.10;;
4355;SDS011;64374;51.482;7.408;2023-04-01T06:11:53;1.03;;;0.80;;
4355;SDS011;64374;51.482;7.408;2023-04-01T06:14:54;1.30;;;1.20;;
4355;SDS011;64374;51.482;7.408;2023-04-01T06:17:35;1.73;;;0.83;;
4355;SDS011;64374;51.482;7.408;2023-04-01T06:20:22;1.13;;;0.90;;
4355;SDS011;64374;51.482;7.408;2023-04-01T06:25:59;0.97;;;0.83;;
4355;SDS011;64374;51.482;7.408;2023-04-01T06:34:47;1.10;;;1.00;;
4355;SDS011;64374;51.482;7.408;2023-04-01T06:37:54;0.60;;;0.60;;
4355;SDS011;64374;51.482;7.408;2023-04-01T06:44:07;1.80;;;0.70;;
4355;SDS011;64374;51.482;7.408;2023-04-01T06:47:28;1.10;;;1.00;;
4355;SDS011;64374;51.482;7.408;2023-04-01T06:50:30;1.10;;;1.00;;
4355;SDS011;64374;51.482;7.408;2023-04-01T06:53:25;1.37;;;0.80;;
4355;SDS011;64374;51.482;7.408;2023-04-01T06:56:24;1.13;;;0.80;;
4355;SDS011;64374;51.482;7.408;2023-04-01T06:58:58;1.27;;;1.00;;
4355;SDS011;64374;51.482;7.408;2023-04-01T07:01:31;0.80;;;0.70;;
4355;SDS011;64374;51.482;7.408;2023-04-01T07:04:05;1.10;;;0.93;;
4355;SDS011;64374;51.482;7.408;2023-04-01T07:06:39;1.67;;;1.17;;
4355;SDS011;64374;51.482;7.408;2023-04-01T07:09:18;1.43;;;0.90;;
4355;SDS011;64374;51.482;7.408;2023-04-01T07:12:10;1.33;;;0.90;;
4355;SDS011;64374;51.482;7.408;2023-04-01T07:15:05;1.37;;;0.80;;
4355;SDS011;64374;51.482;7.408;2023-04-01T07:17:45;1.07;;;1.00;;
4355;SDS011;64374;51.482;7.408;2023-04-01T07:20:17;0.70;;;0.70;;
4355;SDS011;64374;51.482;7.408;2023-04-01T07:22:51;1.00;;;0.80;;
4355;SDS011;64374;51.482;7.408;2023-04-01T07:25:48;1.60;;;0.97;;
4355;SDS011;64374;51.482;7.408;2023-04-01T07:28:26;0.80;;;0.70;;
4355;SDS011;64374;51.482;7.408;2023-04-01T07:31:11;1.10;;;1.00;;
4355;SDS011;64374;51.482;7.408;2023-04-01T07:33:53;3.53;;;0.90;;
4355;SDS011;64374;51.482;7.408;2023-04-01T07:36:32;1.30;;;1.00;;
4355;SDS011;64374;51.482;7.408;2023-04-01T07:39:08;1.73;;;1.07;;
4355;SDS011;64374;51.482;7.408;2023-04-01T07:42:04;0.90;;;0.90;;
4355;SDS011;64374;51.482;7.408;2023-04-01T07:44:38;2.90;;;0.93;;
4355;SDS011;64374;51.482;7.408;2023-04-01T07:47:36;1.23;;;1.13;;
4355;SDS011;64374;51.482;7.408;2023-04-01T07:50:27;1.50;;;1.20;;
4355;SDS011;64374;51.482;7.408;2023-04-01T07:53:02;1.43;;;0.80;;
4355;SDS011;64374;51.482;7.408;2023-04-01T07:55:40;2.70;;;1.37;;
4355;SDS011;64374;51.482;7.408;2023-04-01T07:58:18;1.30;;;1.20;;
4355;SDS011;64374;51.482;7.408;2023-04-01T08:00:54;2.23;;;1.00;;
4355;SDS011;64374;51.482;7.408;2023-04-01T08:03:40;15.93;;;1.33;;
4355;SDS011;64374;51.482;7.408;2023-04-01T08:06:19;2.10;;;1.40;;
4355;SDS011;64374;51.482;7.408;2023-04-01T08:08:57;2.23;;;1.40;;
4355;SDS011;64374;51.482;7.408;2023-04-01T08:11:54;1.33;;;1.07;;
4355;SDS011;64374;51.482;7.408;2023-04-01T08:14:55;1.00;;;0.90;;
4355;SDS011;64374;51.482;7.408;2023-04-01T08:17:54;1.67;;;1.20;;
4355;SDS011;64374;51.482;7.408;2023-04-01T08:20:32;1.07;;;1.07;;
4355;SDS011;64374;51.482;7.408;2023-04-01T08:23:10;1.20;;;1.10;;
4355;SDS011;64374;51.482;7.408;2023-04-01T08:25:44;0.93;;;0.93;;
4355;SDS011;64374;51.482;7.408;2023-04-01T08:28:22;0.90;;;0.90;;
4355;SDS011;64374;51.482;7.408;2023-04-01T08:31:01;1.40;;;1.00;;
4355;SDS011;64374;51.482;7.408;2023-04-01T08:33:33;1.30;;;1.20;;
4355;SDS011;64374;51.482;7.408;2023-04-01T08:36:09;2.77;;;1.20;;
4355;SDS011;64374;51.482;7.408;2023-04-01T08:38:44;10.53;;;2.00;;
4355;SDS011;64374;51.482;7.408;2023-04-01T08:41:36;0.80;;;0.80;;
4355;SDS011;64374;51.482;7.408;2023-04-01T08:47:48;1.00;;;0.90;;
4355;SDS011;64374;51.482;7.408;2023-04-01T08:53:50;1.40;;;1.30;;
4355;SDS011;64374;51.482;7.408;2023-04-01T08:56:41;1.00;;;0.90;;
4355;SDS011;64374;51.482;7.408;2023-04-01T08:59:23;1.97;;;1.30;;
4355;SDS011;64374;51.482;7.408;2023-04-01T09:05:37;1.00;;;1.00;;
4355;SDS011;64374;51.482;7.408;2023-04-01T09:08:31;1.37;;;1.27;;
4355;SDS011;64374;51.482;7.408;2023-04-01T09:11:10;1.57;;;1.47;;
4355;SDS011;64374;51.482;7.408;2023-04-01T09:13:55;2.10;;;1.60;;
4355;SDS011;64374;51.482;7.408;2023-04-01T09:17:36;1.33;;;1.23;;
4355;SDS011;64374;51.482;7.408;2023-04-01T09:20:18;1.40;;;1.30;;
4355;SDS011;64374;51.482;7.408;2023-04-01T09:23:08;1.67;;;1.20;;
4355;SDS011;64374;51.482;7.408;2023-04-01T09:25:52;1.50;;;1.40;;
4355;SDS011;64374;51.482;7.408;2023-04-01T09:28:33;1.70;;;1.60;;
4355;SDS011;64374;51.482;7.408;2023-04-01T09:31:17;1.37;;;1.27;;
4355;SDS011;64374;51.482;7.408;2023-04-01T09:34:17;1.90;;;1.80;;
4355;SDS011;64374;51.482;7.408;2023-04-01T09:39:54;2.10;;;2.00;;
4355;SDS011;64374;51.482;7.408;2023-04-01T09:42:53;2.57;;;1.90;;
4355;SDS011;64374;51.482;7.408;2023-04-01T09:45:44;1.77;;;1.67;;
4355;SDS011;64374;51.482;7.408;2023-04-01T09:48:24;4.70;;;3.17;;
4355;SDS011;64374;51.482;7.408;2023-04-01T09:51:10;3.10;;;2.53;;
4355;SDS011;64374;51.482;7.408;2023-04-01T09:53:53;2.83;;;2.30;;
4355;SDS011;64374;51.482;7.408;2023-04-01T09:56:51;4.30;;;3.10;;
4355;SDS011;64374;51.482;7.408;2023-04-01T09:59:47;2.90;;;2.40;;
4355;SDS011;64374;51.482;7.408;2023-04-01T10:02:56;4.17;;;3.30;;
4355;SDS011;64374;51.482;7.408;2023-04-01T10:05:57;3.23;;;3.00;;
4355;SDS011;64374;51.482;7.408;2023-04-01T10:08:57;4.00;;;3.60;;
4355;SDS011;64374;51.482;7.408;2023-04-01T10:15:23;6.53;;;5.40;;
4355;SDS011;64374;51.482;7.408;2023-04-01T10:18:13;5.13;;;4.63;;
4355;SDS011;64374;51.482;7.408;2023-04-01T10:21:06;4.60;;;3.90;;
4355;SDS011;64374;51.482;7.408;2023-04-01T10:27:30;5.63;;;4.43;;
4355;SDS011;64374;51.482;7.408;2023-04-01T10:30:34;5.37;;;4.60;;
4355;SDS011;64374;51.482;7.408;2023-04-01T10:36:34;5.97;;;5.40;;
4355;SDS011;64374;51.482;7.408;2023-04-01T10:42:58;5.07;;;4.67;;
4355;SDS011;64374;51.482;7.408;2023-04-01T10:52:20;4.90;;;4.50;;
4355;SDS011;64374;51.482;7.408;2023-04-01T10:55:35;4.97;;;4.57;;
4355;SDS011;64374;51.482;7.408;2023-04-01T11:08:37;4.10;;;3.67;;
4355;SDS011;64374;51.482;7.408;2023-04-01T11:11:39;4.73;;;4.23;;
4355;SDS011;64374;51.482;7.408;2023-04-01T11:17:54;5.50;;;5.00;;
4355;SDS011;64374;51.482;7.408;2023-04-01T11:27:06;4.33;;;3.90;;
4355;SDS011;64374;51.482;7.408;2023-04-01T11:30:01;3.97;;;3.40;;
4355;SDS011;64374;51.482;7.408;2023-04-01T11:32:52;5.00;;;4.27;;
4355;SDS011;64374;51.482;7.408;2023-04-01T11:35:28;4.27;;;3.87;;
4355;SDS011;64374;51.482;7.408;2023-04-01T11:38:09;6.50;;;4.20;;
4355;SDS011;64374;51.482;7.408;2023-04-01T11:40:59;4.97;;;3.40;;
4355;SDS011;64374;51.482;7.408;2023-04-01T11:44:03;3.60;;;3.27;;
4355;SDS011;64374;51.482;7.408;2023-04-01T11:46:51;3.77;;;3.47;;
4355;SDS011;64374;51.482;7.408;2023-04-01T11:49:41;5.37;;;3.77;;
4355;SDS011;64374;51.482;7.408;2023-04-01T11:52:28;4.13;;;3.73;;
4355;SDS011;64374;51.482;7.408;2023-04-01T11:55:18;3.67;;;3.37;;
4355;SDS011;64374;51.482;7.408;2023-04-01T11:58:00;3.73;;;2.80;;
4355;SDS011;64374;51.482;7.408;2023-04-01T12:04:06;3.40;;;3.10;;
4355;SDS011;64374;51.482;7.408;2023-04-01T12:06:59;4.50;;;4.00;;
4355;SDS011;64374;51.482;7.408;2023-04-01T12:09:36;4.00;;;3.60;;
4355;SDS011;64374;51.482;7.408;2023-04-01T12:12:13;4.17;;;3.77;;
4355;SDS011;64374;51.482;7.408;2023-04-01T12:14:54;4.07;;;3.50;;
4355;SDS011;64374;51.482;7.408;2023-04-01T12:17:33;4.97;;;4.47;;
4355;SDS011;64374;51.482;7.408;2023-04-01T12:20:16;3.40;;;3.10;;
4355;SDS011;64374;51.482;7.408;2023-04-01T12:22:59;5.40;;;4.80;;
4355;SDS011;64374;51.482;7.408;2023-04-01T12:25:51;3.57;;;3.20;;
4355;SDS011;64374;51.482;7.408;2023-04-01T12:28:29;3.40;;;3.10;;
4355;SDS011;64374;51.482;7.408;2023-04-01T12:31:19;3.73;;;3.43;;
4355;SDS011;64374;51.482;7.408;2023-04-01T12:34:13;3.80;;;3.50;;
4355;SDS011;64374;51.482;7.408;2023-04-01T12:37:20;3.87;;;2.77;;
4355;SDS011;64374;51.482;7.408;2023-04-01T12:40:06;4.53;;;3.70;;
4355;SDS011;64374;51.482;7.408;2023-04-01T12:46:05;4.00;;;3.60;;
4355;SDS011;64374;51.482;7.408;2023-04-01T12:48:55;3.97;;;3.50;;
4355;SDS011;64374;51.482;7.408;2023-04-01T12:52:05;2.60;;;2.40;;
4355;SDS011;64374;51.482;7.408;2023-04-01T12:54:58;3.47;;;3.17;;
4355;SDS011;64374;51.482;7.408;2023-04-01T12:57:53;3.07;;;2.67;;
4355;SDS011;64374;51.482;7.408;2023-04-01T13:00:49;3.70;;;3.40;;
4355;SDS011;64374;51.482;7.408;2023-04-01T13:03:35;5.87;;;4.07;;
4355;SDS011;64374;51.482;7.408;2023-04-01T13:09:33;3.77;;;3.47;;
4355;SDS011;64374;51.482;7.408;2023-04-01T13:12:36;4.00;;;3.70;;
4355;SDS011;64374;51.482;7.408;2023-04-01T13:15:23;3.70;;;3.40;;
4355;SDS011;64374;51.482;7.408;2023-04-01T13:18:05;4.70;;;4.30;;
4355;SDS011;64374;51.482;7.408;2023-04-01T13:20:48;5.30;;;4.80;;
4355;SDS011;64374;51.482;7.408;2023-04-01T13:23:24;6.27;;;5.57;;
4355;SDS011;64374;51.482;7.408;2023-04-01T13:26:05;4.77;;;4.37;;
4355;SDS011;64374;51.482;7.408;2023-04-01T13:28:43;6.90;;;5.73;;
4355;SDS011;64374;51.482;7.408;2023-04-01T13:31:22;7.10;;;5.03;;
4355;SDS011;64374;51.482;7.408;2023-04-01T13:34:25;5.53;;;5.03;;
4355;SDS011;64374;51.482;7.408;2023-04-01T13:37:05;6.37;;;5.70;;
4355;SDS011;64374;51.482;7.408;2023-04-01T13:39:49;5.87;;;5.37;;
4355;SDS011;64374;51.482;7.408;2023-04-01T13:42:31;5.30;;;4.80;;
4355;SDS011;64374;51.482;7.408;2023-04-01T13:45:10;5.50;;;5.00;;
4355;SDS011;64374;51.482;7.408;2023-04-01T13:47:59;5.17;;;4.67;;
4355;SDS011;64374;51.482;7.408;2023-04-01T13:54:32;5.03;;;4.57;;
4355;SDS011;64374;51.482;7.408;2023-04-01T14:00:32;5.83;;;5.13;;
4355;SDS011;64374;51.482;7.408;2023-04-01T14:03:13;6.83;;;6.13;;
4355;SDS011;64374;51.482;7.408;2023-04-01T14:06:02;5.47;;;4.97;;
4355;SDS011;64374;51.482;7.408;2023-04-01T14:08:55;5.70;;;5.20;;
4355;SDS011;64374;51.482;7.408;2023-04-01T14:11:52;8.53;;;4.50;;
4355;SDS011;64374;51.482;7.408;2023-04-01T14:14:29;4.47;;;4.07;;
4355;SDS011;64374;51.482;7.408;2023-04-01T14:17:14;5.40;;;4.90;;
4355;SDS011;64374;51.482;7.408;2023-04-01T14:19:58;7.20;;;4.73;;
4355;SDS011;64374;51.482;7.408;2023-04-01T14:22:42;4.60;;;4.20;;
4355;SDS011;64374;51.482;7.408;2023-04-01T14:25:26;5.73;;;5.23;;
4355;SDS011;64374;51.482;7.408;2023-04-01T14:28:11;5.43;;;4.20;;
4355;SDS011;64374;51.482;7.408;2023-04-01T14:30:51;4.73;;;4.20;;
4355;SDS011;64374;51.482;7.408;2023-04-01T14:33:34;8.20;;;6.17;;
4355;SDS011;64374;51.482;7.408;2023-04-01T14:36:21;12.27;;;7.30;;
4355;SDS011;64374;51.482;7.408;2023-04-01T14:39:00;9.43;;;5.70;;
4355;SDS011;64374;51.482;7.408;2023-04-01T14:41:45;8.10;;;6.13;;
4355;SDS011;64374;51.482;7.408;2023-04-01T14:44:26;6.83;;;4.60;;
4355;SDS011;64374;51.482;7.408;2023-04-01T14:50:12;9.93;;;5.60;;
4355;SDS011;64374;51.482;7.408;2023-04-01T14:52:44;9.57;;;5.90;;
4355;SDS011;64374;51.482;7.408;2023-04-01T14:55:23;4.87;;;3.60;;
4355;SDS011;64374;51.482;7.408;2023-04-01T14:58:07;5.10;;;3.40;;
4355;SDS011;64374;51.482;7.408;2023-04-01T15:00:45;3.90;;;3.60;;
4355;SDS011;64374;51.482;7.408;2023-04-01T15:03:20;4.00;;;3.70;;
4355;SDS011;64374;51.482;7.408;2023-04-01T15:05:55;3.97;;;3.67;;
4355;SDS011;64374;51.482;7.408;2023-04-01T15:08:29;9.10;;;4.07;;
4355;SDS011;64374;51.482;7.408;2023-04-01T15:11:06;4.70;;;4.30;;
4355;SDS011;64374;51.482;7.408;2023-04-01T15:14:16;4.80;;;4.30;;
4355;SDS011;64374;51.482;7.408;2023-04-01T15:17:03;6.10;;;5.50;;
4355;SDS011;64374;51.482;7.408;2023-04-01T15:19:48;10.60;;;6.00;;
4355;SDS011;64374;51.482;7.408;2023-04-01T15:22:47;6.07;;;4.97;;
4355;SDS011;64374;51.482;7.408;2023-04-01T15:25:31;6.87;;;5.60;;
4355;SDS011;64374;51.482;7.408;2023-04-01T15:28:13;6.23;;;5.63;;
4355;SDS011;64374;51.482;7.408;2023-04-01T15:30:53;9.90;;;6.00;;
4355;SDS011;64374;51.482;7.408;2023-04-01T15:33:35;8.77;;;5.97;;
4355;SDS011;64374;51.482;7.408;2023-04-01T15:36:14;8.00;;;5.63;;
4355;SDS011;64374;51.482;7.408;2023-04-01T15:38:50;6.60;;;6.00;;
4355;SDS011;64374;51.482;7.408;2023-04-01T15:41:22;7.93;;;7.13;;
4355;SDS011;64374;51.482;7.408;2023-04-01T15:43:58;7.67;;;5.53;;
4355;SDS011;64374;51.482;7.408;2023-04-01T15:46:29;5.60;;;5.10;;
4355;SDS011;64374;51.482;7.408;2023-04-01T15:49:15;7.40;;;6.17;;
4355;SDS011;64374;51.482;7.408;2023-04-01T15:52:05;6.43;;;5.87;;
4355;SDS011;64374;51.482;7.408;2023-04-01T15:54:47;7.17;;;6.47;;
4355;SDS011;64374;51.482;7.408;2023-04-01T15:57:29;7.93;;;6.60;;
4355;SDS011;64374;51.482;7.408;2023-04-01T16:03:12;8.00;;;6.80;;
4355;SDS011;64374;51.482;7.408;2023-04-01T16:05:54;6.30;;;5.70;;
4355;SDS011;64374;51.482;7.408;2023-04-01T16:08:41;8.37;;;6.60;;
4355;SDS011;64374;51.482;7.408;2023-04-01T16:11:22;9.07;;;7.03;;
4355;SDS011;64374;51.482;7.408;2023-04-01T16:13:59;9.23;;;6.60;;
4355;SDS011;64374;51.482;7.408;2023-04-01T16:16:43;6.23;;;5.33;;
4355;SDS011;64374;51.482;7.408;2023-04-01T16:19:26;7.97;;;7.17;;
4355;SDS011;64374;51.482;7.408;2023-04-01T16:22:28;6.00;;;5.30;;
4355;SDS011;64374;51.482;7.408;2023-04-01T16:25:07;5.93;;;5.47;;
4355;SDS011;64374;51.482;7.408;2023-04-01T16:27:49;7.77;;;6.93;;
4355;SDS011;64374;51.482;7.408;2023-04-01T16:30:33;6.50;;;5.60;;
4355;SDS011;64374;51.482;7.408;2023-04-01T16:33:05;5.93;;;5.30;;
4355;SDS011;64374;51.482;7.408;2023-04-01T16:35:41;6.17;;;4.77;;
4355;SDS011;64374;51.482;7.408;2023-04-01T16:38:18;6.40;;;5.30;;
4355;SDS011;64374;51.482;7.408;2023-04-01T16:40:53;5.40;;;4.93;;
4355;SDS011;64374;51.482;7.408;2023-04-01T16:43:35;7.87;;;5.47;;
4355;SDS011;64374;51.482;7.408;2023-04-01T16:49:17;6.73;;;5.37;;
4355;SDS011;64374;51.482;7.408;2023-04-01T16:51:54;6.63;;;5.33;;
4355;SDS011;64374;51.482;7.408;2023-04-01T16:54:30;6.00;;;5.50;;
4355;SDS011;64374;51.482;7.408;2023-04-01T16:57:10;5.30;;;4.80;;
4355;SDS011;64374;51.482;7.408;2023-04-01T16:59:52;6.70;;;5.83;;
4355;SDS011;64374;51.482;7.408;2023-04-01T17:02:30;5.37;;;4.87;;
4355;SDS011;64374;51.482;7.408;2023-04-01T17:05:03;6.17;;;5.53;;
4355;SDS011;64374;51.482;7.408;2023-04-01T17:07:36;6.63;;;5.97;;
4355;SDS011;64374;51.482;7.408;2023-04-01T17:10:22;7.10;;;5.77;;
4355;SDS011;64374;51.482;7.408;2023-04-01T17:13:13;6.27;;;5.20;;
4355;SDS011;64374;51.482;7.408;2023-04-01T17:16:07;5.33;;;4.83;;
4355;SDS011;64374;51.482;7.408;2023-04-01T17:18:57;9.30;;;6.90;;
4355;SDS011;64374;51.482;7.408;2023-04-01T17:21:41;6.03;;;5.53;;
4355;SDS011;64374;51.482;7.408;2023-04-01T17:24:23;7.40;;;6.00;;
4355;SDS011;64374;51.482;7.408;2023-04-01T17:27:03;8.10;;;6.93;;
4355;SDS011;64374;51.482;7.408;2023-04-01T17:29:56;7.07;;;5.27;;
4355;SDS011;64374;51.482;7.408;2023-04-01T17:32:36;7.20;;;5.63;;
4355;SDS011;64374;51.482;7.408;2023-04-01T17:35:18;6.27;;;5.03;;
4355;SDS011;64374;51.482;7.408;2023-04-01T17:37:57;6.27;;;5.37;;
4355;SDS011;64374;51.482;7.408;2023-04-01T17:40:37;6.50;;;5.90;;
4355;SDS011;64374;51.482;7.408;2023-04-01T17:43:22;7.43;;;6.30;;
4355;SDS011;64374;51.482;7.408;2023-04-01T17:46:01;7.13;;;6.47;;
4355;SDS011;64374;51.482;7.408;2023-04-01T17:48:38;7.40;;;6.10;;
4355;SDS011;64374;51.482;7.408;2023-04-01T17:51:17;5.80;;;5.20;;